Terminal Aerodrome Forecast
Issued by NWS

Current Version | Previous Version | Text Only | Print | Product List | Glossary On
Versions: 1 2 3 4 5 6 7 8 9 10 11 12 13 14 15 16
000
FTUS42 KILM 190521
TAFCRE
TAF
KCRE 190521Z 1906/2006 23010KT P6SM SKC
     FM191400 24007KT P6SM VCTS SCT045CB
     FM200000 20008KT P6SM BKN050
     FM200300 22007KT P6SM SCT050=

USA.gov is the U.S. government's official web portal to all federal, state and local government web resources and services.